sensor_id;sensor_type;location;lat;lon;timestamp;P1;durP1;ratioP1;P2;durP2;ratioP2
34805;SDS011;65084;42.196;25.326;2024-02-21T00:00:52;27.33;;;16.05;;
34805;SDS011;65084;42.196;25.326;2024-02-21T00:03:19;28.48;;;16.52;;
34805;SDS011;65084;42.196;25.326;2024-02-21T00:05:47;29.02;;;16.48;;
34805;SDS011;65084;42.196;25.326;2024-02-21T00:08:14;24.75;;;16.05;;
34805;SDS011;65084;42.196;25.326;2024-02-21T00:10:41;25.00;;;15.52;;
34805;SDS011;65084;42.196;25.326;2024-02-21T00:13:10;22.77;;;14.63;;
34805;SDS011;65084;42.196;25.326;2024-02-21T00:15:37;22.70;;;13.25;;
34805;SDS011;65084;42.196;25.326;2024-02-21T00:18:04;22.67;;;12.93;;
34805;SDS011;65084;42.196;25.326;2024-02-21T00:20:32;19.45;;;12.75;;
34805;SDS011;65084;42.196;25.326;2024-02-21T00:22:59;20.10;;;13.32;;
34805;SDS011;65084;42.196;25.326;2024-02-21T00:25:26;20.52;;;13.35;;
34805;SDS011;65084;42.196;25.326;2024-02-21T00:27:53;20.85;;;13.25;;
34805;SDS011;65084;42.196;25.326;2024-02-21T00:30:22;21.00;;;13.23;;
34805;SDS011;65084;42.196;25.326;2024-02-21T00:32:49;20.85;;;13.52;;
34805;SDS011;65084;42.196;25.326;2024-02-21T00:35:17;22.83;;;14.23;;
34805;SDS011;65084;42.196;25.326;2024-02-21T00:37:44;24.98;;;14.95;;
34805;SDS011;65084;42.196;25.326;2024-02-21T00:40:11;23.83;;;14.98;;
34805;SDS011;65084;42.196;25.326;2024-02-21T00:42:41;25.30;;;15.07;;
34805;SDS011;65084;42.196;25.326;2024-02-21T00:45:08;30.70;;;16.40;;
34805;SDS011;65084;42.196;25.326;2024-02-21T00:47:37;30.40;;;16.42;;
34805;SDS011;65084;42.196;25.326;2024-02-21T00:50:05;30.05;;;16.90;;
34805;SDS011;65084;42.196;25.326;2024-02-21T00:52:33;25.48;;;16.17;;
34805;SDS011;65084;42.196;25.326;2024-02-21T00:55:00;27.92;;;16.73;;
34805;SDS011;65084;42.196;25.326;2024-02-21T00:57:27;27.13;;;16.98;;
34805;SDS011;65084;42.196;25.326;2024-02-21T00:59:55;27.15;;;16.52;;
34805;SDS011;65084;42.196;25.326;2024-02-21T01:02:22;30.02;;;16.35;;
34805;SDS011;65084;42.196;25.326;2024-02-21T01:04:51;31.92;;;16.65;;
34805;SDS011;65084;42.196;25.326;2024-02-21T01:07:18;28.40;;;16.77;;
34805;SDS011;65084;42.196;25.326;2024-02-21T01:09:45;27.35;;;15.55;;
34805;SDS011;65084;42.196;25.326;2024-02-21T01:12:12;25.98;;;15.23;;
34805;SDS011;65084;42.196;25.326;2024-02-21T01:14:40;29.13;;;15.38;;
34805;SDS011;65084;42.196;25.326;2024-02-21T01:17:07;27.02;;;15.07;;
34805;SDS011;65084;42.196;25.326;2024-02-21T01:19:34;27.23;;;16.20;;
34805;SDS011;65084;42.196;25.326;2024-02-21T01:22:03;26.17;;;15.73;;
34805;SDS011;65084;42.196;25.326;2024-02-21T01:24:30;24.55;;;15.57;;
34805;SDS011;65084;42.196;25.326;2024-02-21T01:26:58;28.23;;;16.25;;
34805;SDS011;65084;42.196;25.326;2024-02-21T01:29:25;25.88;;;15.88;;
34805;SDS011;65084;42.196;25.326;2024-02-21T01:31:52;27.08;;;16.35;;
34805;SDS011;65084;42.196;25.326;2024-02-21T01:34:19;30.95;;;16.80;;
34805;SDS011;65084;42.196;25.326;2024-02-21T01:36:47;28.60;;;16.33;;
34805;SDS011;65084;42.196;25.326;2024-02-21T01:39:15;28.88;;;17.13;;
34805;SDS011;65084;42.196;25.326;2024-02-21T01:41:42;27.50;;;16.65;;
34805;SDS011;65084;42.196;25.326;2024-02-21T01:44:10;30.10;;;16.27;;
34805;SDS011;65084;42.196;25.326;2024-02-21T01:46:37;32.17;;;18.10;;
34805;SDS011;65084;42.196;25.326;2024-02-21T01:49:04;31.63;;;17.70;;
34805;SDS011;65084;42.196;25.326;2024-02-21T01:51:32;32.80;;;19.00;;
34805;SDS011;65084;42.196;25.326;2024-02-21T01:53:59;28.38;;;17.52;;
34805;SDS011;65084;42.196;25.326;2024-02-21T01:56:28;33.47;;;17.50;;
34805;SDS011;65084;42.196;25.326;2024-02-21T01:58:55;36.13;;;18.92;;
34805;SDS011;65084;42.196;25.326;2024-02-21T02:01:23;30.40;;;16.98;;
34805;SDS011;65084;42.196;25.326;2024-02-21T02:03:50;35.75;;;17.92;;
34805;SDS011;65084;42.196;25.326;2024-02-21T02:06:18;30.95;;;18.10;;
34805;SDS011;65084;42.196;25.326;2024-02-21T02:08:46;32.75;;;17.60;;
34805;SDS011;65084;42.196;25.326;2024-02-21T02:11:13;31.77;;;18.02;;
34805;SDS011;65084;42.196;25.326;2024-02-21T02:13:42;31.98;;;18.27;;
34805;SDS011;65084;42.196;25.326;2024-02-21T02:16:09;31.45;;;18.92;;
34805;SDS011;65084;42.196;25.326;2024-02-21T02:18:36;34.17;;;19.50;;
34805;SDS011;65084;42.196;25.326;2024-02-21T02:21:04;33.63;;;19.08;;
34805;SDS011;65084;42.196;25.326;2024-02-21T02:23:33;36.35;;;20.58;;
34805;SDS011;65084;42.196;25.326;2024-02-21T02:26:00;33.58;;;18.83;;
34805;SDS011;65084;42.196;25.326;2024-02-21T02:28:28;30.08;;;19.08;;
34805;SDS011;65084;42.196;25.326;2024-02-21T02:30:55;31.83;;;19.38;;
34805;SDS011;65084;42.196;25.326;2024-02-21T02:33:22;39.10;;;19.23;;
34805;SDS011;65084;42.196;25.326;2024-02-21T02:35:49;35.22;;;17.77;;
34805;SDS011;65084;42.196;25.326;2024-02-21T02:38:17;32.75;;;18.15;;
34805;SDS011;65084;42.196;25.326;2024-02-21T02:40:45;32.30;;;18.60;;
34805;SDS011;65084;42.196;25.326;2024-02-21T02:43:13;32.53;;;19.40;;
34805;SDS011;65084;42.196;25.326;2024-02-21T02:45:40;31.67;;;18.58;;
34805;SDS011;65084;42.196;25.326;2024-02-21T02:48:08;33.00;;;18.65;;
34805;SDS011;65084;42.196;25.326;2024-02-21T02:50:35;32.53;;;18.73;;
34805;SDS011;65084;42.196;25.326;2024-02-21T02:53:02;30.63;;;18.10;;
34805;SDS011;65084;42.196;25.326;2024-02-21T02:55:30;36.53;;;18.98;;
34805;SDS011;65084;42.196;25.326;2024-02-21T02:57:58;29.88;;;17.75;;
34805;SDS011;65084;42.196;25.326;2024-02-21T03:00:26;29.10;;;18.02;;
34805;SDS011;65084;42.196;25.326;2024-02-21T03:02:53;33.67;;;18.48;;
34805;SDS011;65084;42.196;25.326;2024-02-21T03:05:20;28.95;;;18.10;;
34805;SDS011;65084;42.196;25.326;2024-02-21T03:07:48;30.45;;;18.20;;
34805;SDS011;65084;42.196;25.326;2024-02-21T03:10:17;28.98;;;17.40;;
34805;SDS011;65084;42.196;25.326;2024-02-21T03:12:44;28.65;;;16.75;;
34805;SDS011;65084;42.196;25.326;2024-02-21T03:15:13;30.65;;;17.33;;
34805;SDS011;65084;42.196;25.326;2024-02-21T03:17:40;27.75;;;16.75;;
34805;SDS011;65084;42.196;25.326;2024-02-21T03:20:08;30.52;;;17.77;;
34805;SDS011;65084;42.196;25.326;2024-02-21T03:22:35;25.83;;;16.85;;
34805;SDS011;65084;42.196;25.326;2024-02-21T03:25:03;32.08;;;17.88;;
34805;SDS011;65084;42.196;25.326;2024-02-21T03:27:31;28.20;;;17.10;;
34805;SDS011;65084;42.196;25.326;2024-02-21T03:29:58;28.75;;;17.33;;
34805;SDS011;65084;42.196;25.326;2024-02-21T03:32:27;26.40;;;16.17;;
34805;SDS011;65084;42.196;25.326;2024-02-21T03:34:54;28.98;;;16.60;;
34805;SDS011;65084;42.196;25.326;2024-02-21T03:37:22;30.17;;;16.45;;
34805;SDS011;65084;42.196;25.326;2024-02-21T03:39:49;25.17;;;16.23;;
34805;SDS011;65084;42.196;25.326;2024-02-21T03:42:16;25.13;;;15.38;;
34805;SDS011;65084;42.196;25.326;2024-02-21T03:44:43;23.20;;;14.85;;
34805;SDS011;65084;42.196;25.326;2024-02-21T03:47:11;25.02;;;14.60;;
34805;SDS011;65084;42.196;25.326;2024-02-21T03:49:39;24.70;;;15.50;;
34805;SDS011;65084;42.196;25.326;2024-02-21T03:52:07;27.88;;;15.88;;
34805;SDS011;65084;42.196;25.326;2024-02-21T03:54:35;27.38;;;16.42;;
34805;SDS011;65084;42.196;25.326;2024-02-21T03:57:04;26.02;;;15.63;;
34805;SDS011;65084;42.196;25.326;2024-02-21T03:59:32;26.88;;;15.82;;
34805;SDS011;65084;42.196;25.326;2024-02-21T04:01:59;28.80;;;16.52;;
34805;SDS011;65084;42.196;25.326;2024-02-21T04:04:29;30.67;;;16.38;;
34805;SDS011;65084;42.196;25.326;2024-02-21T04:06:58;27.73;;;17.10;;
34805;SDS011;65084;42.196;25.326;2024-02-21T04:09:25;29.63;;;15.68;;
34805;SDS011;65084;42.196;25.326;2024-02-21T04:11:52;25.58;;;16.30;;
34805;SDS011;65084;42.196;25.326;2024-02-21T04:14:20;28.92;;;17.20;;
34805;SDS011;65084;42.196;25.326;2024-02-21T04:16:47;32.08;;;17.70;;
34805;SDS011;65084;42.196;25.326;2024-02-21T04:19:14;32.95;;;17.80;;
34805;SDS011;65084;42.196;25.326;2024-02-21T04:21:41;29.25;;;17.52;;
34805;SDS011;65084;42.196;25.326;2024-02-21T04:24:11;25.50;;;16.38;;
34805;SDS011;65084;42.196;25.326;2024-02-21T04:26:38;26.30;;;17.23;;
34805;SDS011;65084;42.196;25.326;2024-02-21T04:29:05;29.58;;;17.85;;
34805;SDS011;65084;42.196;25.326;2024-02-21T04:31:33;29.60;;;17.10;;
34805;SDS011;65084;42.196;25.326;2024-02-21T04:34:00;28.80;;;17.65;;
34805;SDS011;65084;42.196;25.326;2024-02-21T04:36:28;43.08;;;24.10;;
34805;SDS011;65084;42.196;25.326;2024-02-21T04:38:55;58.45;;;31.20;;
34805;SDS011;65084;42.196;25.326;2024-02-21T04:41:24;44.15;;;22.80;;
34805;SDS011;65084;42.196;25.326;2024-02-21T04:43:51;32.20;;;18.50;;
34805;SDS011;65084;42.196;25.326;2024-02-21T04:46:18;31.88;;;18.20;;
34805;SDS011;65084;42.196;25.326;2024-02-21T04:48:46;29.65;;;17.77;;
34805;SDS011;65084;42.196;25.326;2024-02-21T04:51:13;35.85;;;17.77;;
34805;SDS011;65084;42.196;25.326;2024-02-21T04:53:40;33.97;;;18.25;;
34805;SDS011;65084;42.196;25.326;2024-02-21T04:56:08;33.88;;;18.88;;
34805;SDS011;65084;42.196;25.326;2024-02-21T04:58:38;31.15;;;18.33;;
34805;SDS011;65084;42.196;25.326;2024-02-21T05:01:06;34.55;;;18.95;;
34805;SDS011;65084;42.196;25.326;2024-02-21T05:03:33;42.70;;;20.20;;
34805;SDS011;65084;42.196;25.326;2024-02-21T05:06:01;44.40;;;18.90;;
34805;SDS011;65084;42.196;25.326;2024-02-21T05:08:28;31.50;;;18.52;;
34805;SDS011;65084;42.196;25.326;2024-02-21T05:10:55;31.48;;;18.17;;
34805;SDS011;65084;42.196;25.326;2024-02-21T05:13:23;35.10;;;18.65;;
34805;SDS011;65084;42.196;25.326;2024-02-21T05:15:52;30.00;;;18.05;;
34805;SDS011;65084;42.196;25.326;2024-02-21T05:18:19;36.08;;;18.40;;
34805;SDS011;65084;42.196;25.326;2024-02-21T05:20:46;38.85;;;19.00;;
34805;SDS011;65084;42.196;25.326;2024-02-21T05:23:14;36.40;;;19.98;;
34805;SDS011;65084;42.196;25.326;2024-02-21T05:25:41;35.95;;;19.48;;
34805;SDS011;65084;42.196;25.326;2024-02-21T05:28:08;33.30;;;19.95;;
34805;SDS011;65084;42.196;25.326;2024-02-21T05:30:35;47.85;;;23.98;;
34805;SDS011;65084;42.196;25.326;2024-02-21T05:33:07;58.20;;;35.00;;
34805;SDS011;65084;42.196;25.326;2024-02-21T05:35:35;42.50;;;26.58;;
34805;SDS011;65084;42.196;25.326;2024-02-21T05:38:02;44.50;;;26.83;;
34805;SDS011;65084;42.196;25.326;2024-02-21T05:40:31;65.22;;;32.70;;
34805;SDS011;65084;42.196;25.326;2024-02-21T05:42:59;65.00;;;31.23;;
34805;SDS011;65084;42.196;25.326;2024-02-21T05:45:26;56.22;;;31.33;;
34805;SDS011;65084;42.196;25.326;2024-02-21T05:47:53;52.25;;;25.88;;
34805;SDS011;65084;42.196;25.326;2024-02-21T05:50:23;43.38;;;24.60;;
34805;SDS011;65084;42.196;25.326;2024-02-21T05:52:52;67.68;;;30.38;;
34805;SDS011;65084;42.196;25.326;2024-02-21T05:55:19;62.63;;;26.05;;
34805;SDS011;65084;42.196;25.326;2024-02-21T05:57:46;54.25;;;25.13;;
34805;SDS011;65084;42.196;25.326;2024-02-21T06:00:14;52.08;;;25.17;;
34805;SDS011;65084;42.196;25.326;2024-02-21T06:02:41;49.72;;;23.83;;
34805;SDS011;65084;42.196;25.326;2024-02-21T06:05:09;47.25;;;24.25;;
34805;SDS011;65084;42.196;25.326;2024-02-21T06:07:38;45.95;;;23.70;;
34805;SDS011;65084;42.196;25.326;2024-02-21T06:10:06;52.97;;;27.20;;
34805;SDS011;65084;42.196;25.326;2024-02-21T06:12:33;41.63;;;24.15;;
34805;SDS011;65084;42.196;25.326;2024-02-21T06:15:00;36.08;;;22.08;;
34805;SDS011;65084;42.196;25.326;2024-02-21T06:17:28;37.40;;;21.27;;
34805;SDS011;65084;42.196;25.326;2024-02-21T06:19:55;37.80;;;23.27;;
34805;SDS011;65084;42.196;25.326;2024-02-21T06:22:22;37.97;;;20.42;;
34805;SDS011;65084;42.196;25.326;2024-02-21T06:24:51;34.40;;;19.95;;
34805;SDS011;65084;42.196;25.326;2024-02-21T06:27:19;31.50;;;19.92;;
34805;SDS011;65084;42.196;25.326;2024-02-21T06:29:46;34.70;;;20.45;;
34805;SDS011;65084;42.196;25.326;2024-02-21T06:32:14;40.38;;;21.02;;
34805;SDS011;65084;42.196;25.326;2024-02-21T06:34:41;44.35;;;22.67;;
34805;SDS011;65084;42.196;25.326;2024-02-21T06:37:08;40.33;;;23.20;;
34805;SDS011;65084;42.196;25.326;2024-02-21T06:39:36;47.42;;;25.67;;
34805;SDS011;65084;42.196;25.326;2024-02-21T06:42:04;48.60;;;26.10;;
34805;SDS011;65084;42.196;25.326;2024-02-21T06:44:32;46.40;;;25.85;;
34805;SDS011;65084;42.196;25.326;2024-02-21T06:47:05;46.85;;;26.17;;
34805;SDS011;65084;42.196;25.326;2024-02-21T06:49:32;45.97;;;25.90;;
34805;SDS011;65084;42.196;25.326;2024-02-21T06:52:00;43.30;;;24.02;;
34805;SDS011;65084;42.196;25.326;2024-02-21T06:54:27;35.30;;;22.08;;
34805;SDS011;65084;42.196;25.326;2024-02-21T06:56:54;38.22;;;21.20;;
34805;SDS011;65084;42.196;25.326;2024-02-21T06:59:23;39.88;;;23.05;;
34805;SDS011;65084;42.196;25.326;2024-02-21T07:01:53;44.72;;;23.65;;
34805;SDS011;65084;42.196;25.326;2024-02-21T07:04:21;44.63;;;23.80;;
34805;SDS011;65084;42.196;25.326;2024-02-21T07:06:49;41.22;;;22.33;;
34805;SDS011;65084;42.196;25.326;2024-02-21T07:09:16;42.17;;;23.58;;
34805;SDS011;65084;42.196;25.326;2024-02-21T07:11:43;39.03;;;21.88;;
34805;SDS011;65084;42.196;25.326;2024-02-21T07:14:10;38.30;;;21.73;;
34805;SDS011;65084;42.196;25.326;2024-02-21T07:16:39;36.80;;;20.65;;
34805;SDS011;65084;42.196;25.326;2024-02-21T07:19:06;39.03;;;21.48;;
34805;SDS011;65084;42.196;25.326;2024-02-21T07:21:34;32.22;;;20.33;;
34805;SDS011;65084;42.196;25.326;2024-02-21T07:24:03;38.55;;;20.95;;
34805;SDS011;65084;42.196;25.326;2024-02-21T07:26:30;53.75;;;27.77;;
34805;SDS011;65084;42.196;25.326;2024-02-21T07:28:58;48.67;;;27.45;;
34805;SDS011;65084;42.196;25.326;2024-02-21T07:31:25;44.85;;;26.52;;
34805;SDS011;65084;42.196;25.326;2024-02-21T07:33:54;52.65;;;28.83;;
34805;SDS011;65084;42.196;25.326;2024-02-21T07:36:25;52.92;;;29.58;;
34805;SDS011;65084;42.196;25.326;2024-02-21T07:38:52;44.17;;;26.60;;
34805;SDS011;65084;42.196;25.326;2024-02-21T07:41:20;50.90;;;29.42;;
34805;SDS011;65084;42.196;25.326;2024-02-21T07:43:47;52.72;;;28.05;;
34805;SDS011;65084;42.196;25.326;2024-02-21T07:46:15;48.42;;;27.52;;
34805;SDS011;65084;42.196;25.326;2024-02-21T07:48:42;46.22;;;26.02;;
34805;SDS011;65084;42.196;25.326;2024-02-21T07:51:11;44.10;;;25.50;;
34805;SDS011;65084;42.196;25.326;2024-02-21T07:53:38;43.65;;;23.80;;
34805;SDS011;65084;42.196;25.326;2024-02-21T07:56:09;57.85;;;26.85;;
34805;SDS011;65084;42.196;25.326;2024-02-21T07:58:37;44.75;;;25.90;;
34805;SDS011;65084;42.196;25.326;2024-02-21T08:01:04;42.67;;;23.95;;
34805;SDS011;65084;42.196;25.326;2024-02-21T08:03:31;43.70;;;25.95;;
34805;SDS011;65084;42.196;25.326;2024-02-21T08:05:58;45.45;;;24.67;;
34805;SDS011;65084;42.196;25.326;2024-02-21T08:08:27;40.05;;;23.42;;
34805;SDS011;65084;42.196;25.326;2024-02-21T08:10:55;32.30;;;20.42;;
34805;SDS011;65084;42.196;25.326;2024-02-21T08:13:22;33.58;;;20.38;;
34805;SDS011;65084;42.196;25.326;2024-02-21T08:15:49;39.17;;;21.30;;
34805;SDS011;65084;42.196;25.326;2024-02-21T08:18:17;36.70;;;21.33;;
34805;SDS011;65084;42.196;25.326;2024-02-21T08:20:44;35.08;;;19.73;;
34805;SDS011;65084;42.196;25.326;2024-02-21T08:23:11;38.42;;;21.27;;
34805;SDS011;65084;42.196;25.326;2024-02-21T08:25:40;32.28;;;19.15;;
34805;SDS011;65084;42.196;25.326;2024-02-21T08:28:07;36.78;;;20.25;;
34805;SDS011;65084;42.196;25.326;2024-02-21T08:30:34;35.75;;;20.73;;
34805;SDS011;65084;42.196;25.326;2024-02-21T08:33:02;33.20;;;21.20;;
34805;SDS011;65084;42.196;25.326;2024-02-21T08:35:29;31.50;;;19.60;;
34805;SDS011;65084;42.196;25.326;2024-02-21T08:37:57;33.65;;;18.83;;
34805;SDS011;65084;42.196;25.326;2024-02-21T08:40:24;30.77;;;19.95;;
34805;SDS011;65084;42.196;25.326;2024-02-21T08:42:53;33.80;;;19.92;;
34805;SDS011;65084;42.196;25.326;2024-02-21T08:45:20;32.75;;;20.75;;
34805;SDS011;65084;42.196;25.326;2024-02-21T08:47:47;35.15;;;20.80;;
34805;SDS011;65084;42.196;25.326;2024-02-21T08:50:14;31.92;;;20.45;;
34805;SDS011;65084;42.196;25.326;2024-02-21T08:52:42;29.73;;;19.70;;
34805;SDS011;65084;42.196;25.326;2024-02-21T08:55:09;32.95;;;20.17;;
34805;SDS011;65084;42.196;25.326;2024-02-21T08:57:36;30.33;;;19.88;;
34805;SDS011;65084;42.196;25.326;2024-02-21T09:00:06;27.35;;;18.63;;
34805;SDS011;65084;42.196;25.326;2024-02-21T09:02:36;28.42;;;18.52;;
34805;SDS011;65084;42.196;25.326;2024-02-21T09:05:04;30.15;;;19.33;;
34805;SDS011;65084;42.196;25.326;2024-02-21T09:07:31;28.58;;;17.60;;
34805;SDS011;65084;42.196;25.326;2024-02-21T09:09:58;26.20;;;18.40;;
34805;SDS011;65084;42.196;25.326;2024-02-21T09:12:26;29.65;;;18.58;;
34805;SDS011;65084;42.196;25.326;2024-02-21T09:14:53;28.08;;;18.20;;
34805;SDS011;65084;42.196;25.326;2024-02-21T09:17:22;63.53;;;29.80;;
34805;SDS011;65084;42.196;25.326;2024-02-21T09:19:50;37.15;;;21.48;;
34805;SDS011;65084;42.196;25.326;2024-02-21T09:22:17;42.00;;;21.17;;
34805;SDS011;65084;42.196;25.326;2024-02-21T09:24:44;27.33;;;17.25;;
34805;SDS011;65084;42.196;25.326;2024-02-21T09:27:12;40.10;;;21.58;;
34805;SDS011;65084;42.196;25.326;2024-02-21T09:29:40;58.58;;;27.25;;
34805;SDS011;65084;42.196;25.326;2024-02-21T09:32:07;30.75;;;19.08;;
34805;SDS011;65084;42.196;25.326;2024-02-21T09:34:35;24.17;;;17.55;;
34805;SDS011;65084;42.196;25.326;2024-02-21T09:37:03;29.42;;;18.90;;
34805;SDS011;65084;42.196;25.326;2024-02-21T09:39:30;25.88;;;16.83;;
34805;SDS011;65084;42.196;25.326;2024-02-21T09:41:58;32.92;;;19.77;;
34805;SDS011;65084;42.196;25.326;2024-02-21T09:44:27;29.65;;;16.73;;
34805;SDS011;65084;42.196;25.326;2024-02-21T09:46:57;25.20;;;17.40;;
34805;SDS011;65084;42.196;25.326;2024-02-21T09:49:29;30.00;;;18.10;;
34805;SDS011;65084;42.196;25.326;2024-02-21T09:52:00;22.30;;;16.35;;
34805;SDS011;65084;42.196;25.326;2024-02-21T09:54:28;28.77;;;16.60;;
34805;SDS011;65084;42.196;25.326;2024-02-21T09:56:56;29.20;;;17.17;;
34805;SDS011;65084;42.196;25.326;2024-02-21T09:59:23;24.13;;;16.08;;
34805;SDS011;65084;42.196;25.326;2024-02-21T10:01:51;23.92;;;15.52;;
34805;SDS011;65084;42.196;25.326;2024-02-21T10:04:20;20.50;;;14.75;;
34805;SDS011;65084;42.196;25.326;2024-02-21T10:06:47;28.92;;;17.58;;
34805;SDS011;65084;42.196;25.326;2024-02-21T10:09:22;22.27;;;16.48;;
34805;SDS011;65084;42.196;25.326;2024-02-21T10:11:52;20.77;;;14.80;;
34805;SDS011;65084;42.196;25.326;2024-02-21T10:14:20;17.30;;;13.38;;
34805;SDS011;65084;42.196;25.326;2024-02-21T10:16:47;16.77;;;12.18;;
34805;SDS011;65084;42.196;25.326;2024-02-21T10:19:18;16.63;;;11.43;;
34805;SDS011;65084;42.196;25.326;2024-02-21T10:21:59;14.15;;;10.88;;
34805;SDS011;65084;42.196;25.326;2024-02-21T10:24:27;13.35;;;10.68;;
34805;SDS011;65084;42.196;25.326;2024-02-21T10:27:04;13.52;;;10.07;;
34805;SDS011;65084;42.196;25.326;2024-02-21T10:29:33;15.25;;;11.38;;
34805;SDS011;65084;42.196;25.326;2024-02-21T10:32:06;19.27;;;11.43;;
34805;SDS011;65084;42.196;25.326;2024-02-21T10:34:35;18.70;;;12.98;;
34805;SDS011;65084;42.196;25.326;2024-02-21T10:37:02;17.05;;;13.48;;
34805;SDS011;65084;42.196;25.326;2024-02-21T10:39:31;15.43;;;12.63;;
34805;SDS011;65084;42.196;25.326;2024-02-21T10:41:59;16.05;;;12.10;;
34805;SDS011;65084;42.196;25.326;2024-02-21T10:44:28;14.57;;;11.35;;
34805;SDS011;65084;42.196;25.326;2024-02-21T10:46:56;15.27;;;11.70;;
34805;SDS011;65084;42.196;25.326;2024-02-21T10:49:24;12.68;;;10.70;;
34805;SDS011;65084;42.196;25.326;2024-02-21T10:51:54;13.20;;;10.70;;
34805;SDS011;65084;42.196;25.326;2024-02-21T10:54:25;14.63;;;10.02;;
34805;SDS011;65084;42.196;25.326;2024-02-21T10:56:57;12.75;;;10.05;;
34805;SDS011;65084;42.196;25.326;2024-02-21T10:59:25;12.75;;;10.50;;
34805;SDS011;65084;42.196;25.326;2024-02-21T11:01:54;12.45;;;10.50;;
34805;SDS011;65084;42.196;25.326;2024-02-21T11:04:21;14.35;;;9.63;;
34805;SDS011;65084;42.196;25.326;2024-02-21T11:06:49;26.30;;;10.63;;
34805;SDS011;65084;42.196;25.326;2024-02-21T11:09:17;12.98;;;9.85;;
34805;SDS011;65084;42.196;25.326;2024-02-21T11:11:44;11.98;;;9.82;;
34805;SDS011;65084;42.196;25.326;2024-02-21T11:14:18;21.35;;;9.65;;
34805;SDS011;65084;42.196;25.326;2024-02-21T11:16:46;15.23;;;10.32;;
34805;SDS011;65084;42.196;25.326;2024-02-21T11:19:19;16.67;;;11.15;;
34805;SDS011;65084;42.196;25.326;2024-02-21T11:21:46;22.27;;;12.75;;
34805;SDS011;65084;42.196;25.326;2024-02-21T11:24:14;10.57;;;9.25;;
34805;SDS011;65084;42.196;25.326;2024-02-21T11:26:52;11.75;;;9.90;;
34805;SDS011;65084;42.196;25.326;2024-02-21T11:29:24;14.90;;;8.75;;
34805;SDS011;65084;42.196;25.326;2024-02-21T11:31:51;12.30;;;8.60;;
34805;SDS011;65084;42.196;25.326;2024-02-21T11:34:19;11.30;;;9.50;;
34805;SDS011;65084;42.196;25.326;2024-02-21T11:36:46;11.45;;;9.30;;
34805;SDS011;65084;42.196;25.326;2024-02-21T11:39:18;11.25;;;9.10;;
34805;SDS011;65084;42.196;25.326;2024-02-21T11:41:47;13.57;;;8.23;;
34805;SDS011;65084;42.196;25.326;2024-02-21T11:44:14;10.70;;;8.82;;
34805;SDS011;65084;42.196;25.326;2024-02-21T11:46:43;9.70;;;7.72;;
34805;SDS011;65084;42.196;25.326;2024-02-21T11:49:11;9.82;;;7.78;;
34805;SDS011;65084;42.196;25.326;2024-02-21T11:51:39;8.93;;;6.93;;
34805;SDS011;65084;42.196;25.326;2024-02-21T11:54:06;6.57;;;5.90;;
34805;SDS011;65084;42.196;25.326;2024-02-21T11:56:34;8.20;;;5.97;;
34805;SDS011;65084;42.196;25.326;2024-02-21T11:59:02;8.55;;;6.40;;
34805;SDS011;65084;42.196;25.326;2024-02-21T12:01:31;7.20;;;6.50;;
34805;SDS011;65084;42.196;25.326;2024-02-21T12:04:00;10.00;;;7.38;;
34805;SDS011;65084;42.196;25.326;2024-02-21T12:06:28;7.18;;;6.18;;
34805;SDS011;65084;42.196;25.326;2024-02-21T12:08:57;6.43;;;5.57;;
34805;SDS011;65084;42.196;25.326;2024-02-21T12:11:25;6.32;;;5.72;;
34805;SDS011;65084;42.196;25.326;2024-02-21T12:13:59;7.10;;;5.72;;
34805;SDS011;65084;42.196;25.326;2024-02-21T12:18:55;5.80;;;5.22;;
34805;SDS011;65084;42.196;25.326;2024-02-21T12:21:29;6.75;;;5.88;;
34805;SDS011;65084;42.196;25.326;2024-02-21T12:23:57;6.07;;;5.30;;
34805;SDS011;65084;42.196;25.326;2024-02-21T12:26:25;7.07;;;6.38;;
34805;SDS011;65084;42.196;25.326;2024-02-21T12:28:53;8.88;;;5.82;;
34805;SDS011;65084;42.196;25.326;2024-02-21T12:31:20;7.13;;;5.85;;
34805;SDS011;65084;42.196;25.326;2024-02-21T12:33:48;7.55;;;6.45;;
34805;SDS011;65084;42.196;25.326;2024-02-21T12:36:17;8.15;;;5.28;;
34805;SDS011;65084;42.196;25.326;2024-02-21T12:38:45;16.77;;;7.43;;
34805;SDS011;65084;42.196;25.326;2024-02-21T12:41:14;5.97;;;5.45;;
34805;SDS011;65084;42.196;25.326;2024-02-21T12:43:41;8.25;;;5.43;;
34805;SDS011;65084;42.196;25.326;2024-02-21T12:46:08;8.25;;;6.30;;
34805;SDS011;65084;42.196;25.326;2024-02-21T12:48:35;5.53;;;4.97;;
34805;SDS011;65084;42.196;25.326;2024-02-21T12:51:03;5.50;;;5.00;;
34805;SDS011;65084;42.196;25.326;2024-02-21T12:53:30;6.18;;;5.50;;
34805;SDS011;65084;42.196;25.326;2024-02-21T12:55:59;11.60;;;7.07;;
34805;SDS011;65084;42.196;25.326;2024-02-21T12:58:26;9.18;;;5.68;;
34805;SDS011;65084;42.196;25.326;2024-02-21T13:00:56;7.18;;;5.25;;
34805;SDS011;65084;42.196;25.326;2024-02-21T13:03:24;4.30;;;3.90;;
34805;SDS011;65084;42.196;25.326;2024-02-21T13:05:51;5.50;;;4.63;;
34805;SDS011;65084;42.196;25.326;2024-02-21T13:08:18;5.60;;;5.13;;
34805;SDS011;65084;42.196;25.326;2024-02-21T13:10:47;5.43;;;4.93;;
34805;SDS011;65084;42.196;25.326;2024-02-21T13:13:16;6.20;;;5.60;;
34805;SDS011;65084;42.196;25.326;2024-02-21T13:15:44;5.38;;;4.93;;
34805;SDS011;65084;42.196;25.326;2024-02-21T13:18:11;5.25;;;4.75;;
34805;SDS011;65084;42.196;25.326;2024-02-21T13:20:38;5.47;;;4.97;;
34805;SDS011;65084;42.196;25.326;2024-02-21T13:23:06;5.20;;;4.78;;
34805;SDS011;65084;42.196;25.326;2024-02-21T13:25:33;5.30;;;4.80;;
34805;SDS011;65084;42.196;25.326;2024-02-21T13:28:00;5.38;;;4.88;;
34805;SDS011;65084;42.196;25.326;2024-02-21T13:30:29;5.03;;;4.50;;
34805;SDS011;65084;42.196;25.326;2024-02-21T13:32:56;5.85;;;4.93;;
34805;SDS011;65084;42.196;25.326;2024-02-21T13:35:24;5.10;;;4.60;;
34805;SDS011;65084;42.196;25.326;2024-02-21T13:37:51;6.65;;;4.38;;
34805;SDS011;65084;42.196;25.326;2024-02-21T13:40:18;5.32;;;4.28;;
34805;SDS011;65084;42.196;25.326;2024-02-21T13:42:46;4.47;;;4.03;;
34805;SDS011;65084;42.196;25.326;2024-02-21T13:45:14;4.88;;;4.47;;
34805;SDS011;65084;42.196;25.326;2024-02-21T13:47:43;5.80;;;4.35;;
34805;SDS011;65084;42.196;25.326;2024-02-21T13:50:11;6.18;;;3.80;;
34805;SDS011;65084;42.196;25.326;2024-02-21T13:52:39;4.35;;;3.95;;
34805;SDS011;65084;42.196;25.326;2024-02-21T13:55:06;4.43;;;4.03;;
34805;SDS011;65084;42.196;25.326;2024-02-21T13:57:34;6.85;;;4.72;;
34805;SDS011;65084;42.196;25.326;2024-02-21T14:00:02;4.28;;;3.97;;
34805;SDS011;65084;42.196;25.326;2024-02-21T14:02:29;4.75;;;4.05;;
34805;SDS011;65084;42.196;25.326;2024-02-21T14:04:58;5.05;;;4.50;;
34805;SDS011;65084;42.196;25.326;2024-02-21T14:07:25;6.78;;;4.25;;
34805;SDS011;65084;42.196;25.326;2024-02-21T14:09:53;5.53;;;4.55;;
34805;SDS011;65084;42.196;25.326;2024-02-21T14:12:20;5.80;;;4.60;;
34805;SDS011;65084;42.196;25.326;2024-02-21T14:14:48;4.30;;;3.50;;
34805;SDS011;65084;42.196;25.326;2024-02-21T14:17:17;5.13;;;4.63;;
34805;SDS011;65084;42.196;25.326;2024-02-21T14:19:45;5.95;;;5.43;;